Time;durP1;ratioP1;P1;durP2;ratioP2;P2;SDS_P1;SDS_P2;PMS_P1;PMS_P2;Temp;Humidity;BMP_temperature;BMP_pressure;BME280_temperature;BME280_humidity;BME280_pressure;Samples;Min_cycle;Max_cycle;Signal;HPM_P1;HPM_P2
2022/02/20 00:01:32;;;;;;;320.63;153.35;;;205.70;2252.80;;;;;;5096099;28;20047;-79
2022/02/20 00:04:02;;;;;;;269.77;127.82;;;205.70;2252.80;;;;;;5096334;28;20119;-78
2022/02/20 00:06:36;;;;;;;246.25;125.18;;;205.60;2252.80;;;;;;5096440;28;20053;-79
2022/02/20 00:09:05;;;;;;;158.48;83.80;;;205.40;2252.80;;;;;;5096253;28;20503;-79
2022/02/20 00:11:31;;;;;;;142.52;80.70;;;205.20;2252.80;;;;;;5096443;28;20031;-78
2022/02/20 00:13:57;;;;;;;212.77;115.72;;;205.20;2252.80;;;;;;5114040;28;20027;-79
2022/02/20 00:16:23;;;;;;;202.50;112.50;;;205.20;2252.80;;;;;;5096391;28;20016;-78
2022/02/20 00:18:49;;;;;;;200.73;112.53;;;205.20;2252.80;;;;;;5096373;28;20019;-79
2022/02/20 00:21:16;;;;;;;232.55;124.00;;;205.10;2252.80;;;;;;5114451;28;20462;-79
2022/02/20 00:23:42;;;;;;;335.23;146.77;;;205.10;2252.80;;;;;;5100657;28;20024;-79
2022/02/20 00:26:08;;;;;;;187.63;97.35;;;205.10;2252.80;;;;;;5114348;28;20447;-79
2022/02/20 00:28:34;;;;;;;167.90;89.40;;;205.30;2252.80;;;;;;5096428;28;20131;-79
2022/02/20 00:31:02;;;;;;;175.75;98.43;;;205.30;2252.80;;;;;;5096293;28;20026;-79
2022/02/20 00:33:28;;;;;;;216.20;108.90;;;205.30;2252.80;;;;;;5094111;28;20032;-79
2022/02/20 00:35:54;;;;;;;199.23;103.20;;;205.10;2252.80;;;;;;5095755;28;20026;-79
2022/02/20 00:38:20;;;;;;;225.23;119.40;;;205.10;2252.80;;;;;;5095920;28;20130;-80
2022/02/20 00:40:48;;;;;;;230.27;133.18;;;205.20;2252.80;;;;;;5114341;28;20024;-80
2022/02/20 00:43:15;;;;;;;216.05;125.18;;;205.20;2252.80;;;;;;5095364;28;20043;-80
2022/02/20 01:37:42;;;;;;;58.35;33.03;;;205.60;2252.80;;;;;;5029833;28;20090;-76
2022/02/20 01:40:11;;;;;;;98.60;54.40;;;205.70;2252.80;;;;;;5046781;28;20132;-82
2022/02/20 01:42:37;;;;;;;101.53;50.90;;;205.70;2252.80;;;;;;5079757;28;20116;-83
2022/02/20 01:45:04;;;;;;;27.83;14.82;;;230.40;2252.80;;;;;;5078806;28;20485;-82
2022/02/20 01:47:30;;;;;;;23.38;13.27;;;230.40;2252.80;;;;;;5079722;28;20054;-82
2022/02/20 01:50:06;;;;;;;26.83;11.52;;;230.50;2252.80;;;;;;5079483;28;20030;-83
2022/02/20 01:52:32;;;;;;;16.17;7.93;;;230.60;2252.80;;;;;;5079302;28;20153;-83
2022/02/20 01:54:58;;;;;;;29.15;12.18;;;230.60;2252.80;;;;;;5079100;28;20070;-82
2022/02/20 01:57:24;;;;;;;19.05;9.98;;;230.70;2252.80;;;;;;5079691;28;20387;-83
2022/02/20 01:59:52;;;;;;;15.05;6.97;;;230.70;2252.80;;;;;;5079009;28;20020;-82
2022/02/20 02:02:19;;;;;;;22.27;9.48;;;230.70;2252.80;;;;;;5079030;28;20475;-82
2022/02/20 02:04:47;;;;;;;17.17;9.48;;;230.70;2252.80;;;;;;5078972;28;20047;-82
2022/02/20 02:07:13;;;;;;;18.38;9.43;;;230.70;2252.80;;;;;;5078659;28;20102;-82
2022/02/20 02:09:39;;;;;;;23.38;10.15;;;230.70;2252.80;;;;;;5078910;28;20115;-81
2022/02/20 02:12:05;;;;;;;23.02;9.25;;;230.70;2252.80;;;;;;5097091;28;20070;-81
2022/02/20 02:14:31;;;;;;;16.67;8.35;;;230.70;2252.80;;;;;;5078626;28;20065;-82
2022/02/20 02:16:57;;;;;;;14.73;7.50;;;230.70;2252.80;;;;;;5078862;28;20028;-82
2022/02/20 02:19:23;;;;;;;12.60;7.88;;;230.70;2252.80;;;;;;5078761;28;20020;-81
2022/02/20 02:21:49;;;;;;;15.32;7.45;;;230.70;2252.80;;;;;;5078495;28;20024;-81
2022/02/20 02:24:15;;;;;;;13.68;6.07;;;230.60;2252.80;;;;;;5078496;28;20474;-82
2022/02/20 02:26:41;;;;;;;13.90;8.00;;;230.60;2252.80;;;;;;5078418;28;20050;-80
2022/02/20 02:29:07;;;;;;;11.80;5.88;;;230.60;2252.80;;;;;;5078659;28;20113;-83
2022/02/20 02:31:33;;;;;;;8.50;5.00;;;230.60;2252.80;;;;;;5078496;28;20020;-81
2022/02/20 02:34:00;;;;;;;12.20;5.20;;;230.60;2252.80;;;;;;5078283;28;20031;-82
2022/02/20 02:36:26;;;;;;;12.52;5.45;;;230.60;2252.80;;;;;;5078254;28;20027;-82
2022/02/20 02:38:52;;;;;;;9.65;5.25;;;230.60;2252.80;;;;;;5078492;28;20028;-82
2022/02/20 02:41:18;;;;;;;11.50;5.55;;;230.60;2252.80;;;;;;5078046;28;20433;-82
2022/02/20 02:43:44;;;;;;;9.75;5.95;;;230.50;2252.80;;;;;;5078272;28;20066;-82
2022/02/20 02:46:09;;;;;;;11.25;5.50;;;230.60;2252.80;;;;;;5096486;28;20459;-82
2022/02/20 02:48:44;;;;;;;18.77;9.10;;;230.60;2252.80;;;;;;5077328;28;20024;-82
2022/02/20 02:51:10;;;;;;;10.50;5.25;;;230.60;2252.80;;;;;;5078377;28;20066;-82
2022/02/20 02:53:35;;;;;;;13.25;6.75;;;230.60;2252.80;;;;;;5078127;28;20048;-81
2022/02/20 02:56:01;;;;;;;18.83;9.18;;;230.60;2252.80;;;;;;5077821;28;20505;-81
2022/02/20 02:58:27;;;;;;;13.20;7.07;;;230.60;2252.80;;;;;;5095728;28;20020;-81
2022/02/20 03:00:54;;;;;;;13.18;7.60;;;230.60;2252.80;;;;;;5077806;28;20447;-82
2022/02/20 03:03:21;;;;;;;15.77;7.90;;;230.70;2252.80;;;;;;5077665;28;20031;-81
2022/02/20 03:05:47;;;;;;;10.63;5.10;;;230.70;2252.80;;;;;;5077509;28;20024;-81
2022/02/20 03:08:13;;;;;;;11.93;5.28;;;230.70;2252.80;;;;;;5078172;28;20020;-82
2022/02/20 03:10:38;;;;;;;10.98;5.05;;;230.70;2252.80;;;;;;5077482;28;20439;-81
2022/02/20 03:13:04;;;;;;;10.32;5.60;;;230.70;2252.80;;;;;;5077867;28;20026;-80
2022/02/20 03:15:30;;;;;;;12.40;6.55;;;230.70;2252.80;;;;;;5088135;28;20083;-82
2022/02/20 03:17:56;;;;;;;9.52;4.85;;;230.70;2252.80;;;;;;5093873;28;20023;-81
2022/02/20 03:20:22;;;;;;;10.40;5.70;;;230.70;2252.80;;;;;;5077809;28;20020;-82
2022/02/20 03:22:48;;;;;;;15.57;7.13;;;230.70;2252.80;;;;;;5077352;28;20046;-80
2022/02/20 03:25:13;;;;;;;12.60;5.95;;;230.70;2252.80;;;;;;5095551;28;20028;-83
2022/02/20 03:27:39;;;;;;;9.27;5.47;;;230.70;2252.80;;;;;;5077441;28;20024;-81
2022/02/20 03:30:06;;;;;;;9.88;4.70;;;230.70;2252.80;;;;;;5077178;28;20420;-81
2022/02/20 03:32:32;;;;;;;8.65;4.47;;;230.70;2252.80;;;;;;5077437;28;20043;-82
2022/02/20 03:34:59;;;;;;;10.07;5.32;;;230.70;2252.80;;;;;;5077230;28;20444;-82
2022/02/20 03:37:26;;;;;;;8.82;4.50;;;230.70;2252.80;;;;;;5094992;28;20040;-82
2022/02/20 03:39:51;;;;;;;13.45;5.88;;;230.70;2252.80;;;;;;5095181;28;20024;-82
2022/02/20 03:42:17;;;;;;;13.98;6.95;;;230.70;2252.80;;;;;;5077111;28;20354;-81
2022/02/20 03:44:43;;;;;;;10.77;5.50;;;230.80;2252.80;;;;;;5094741;28;20024;-81
2022/02/20 03:47:09;;;;;;;14.32;6.00;;;230.70;2252.80;;;;;;5077010;28;20028;-82
2022/02/20 03:49:35;;;;;;;10.45;5.70;;;230.70;2252.80;;;;;;5077138;28;20046;-83
2022/02/20 03:52:00;;;;;;;10.30;5.63;;;230.60;2252.80;;;;;;5076668;28;20024;-81
2022/02/20 03:54:26;;;;;;;10.93;6.57;;;230.60;2252.80;;;;;;5095394;28;20031;-81
2022/02/20 03:56:52;;;;;;;16.55;6.90;;;230.60;2252.80;;;;;;5076867;28;20069;-82
2022/02/20 03:59:18;;;;;;;22.83;9.18;;;230.60;2252.80;;;;;;5076198;28;20099;-82
2022/02/20 04:01:43;;;;;;;10.35;6.00;;;230.50;2252.80;;;;;;5094054;28;20095;-82
2022/02/20 04:04:11;;;;;;;11.52;6.30;;;230.50;2252.80;;;;;;5076713;28;20028;-81
2022/02/20 04:06:37;;;;;;;27.35;12.93;;;230.50;2252.80;;;;;;5076483;28;20020;-80
2022/02/20 04:09:03;;;;;;;23.30;11.70;;;230.50;2252.80;;;;;;5076519;28;20413;-81
2022/02/20 04:11:28;;;;;;;21.23;9.38;;;230.50;2252.80;;;;;;5076551;28;20027;-82
2022/02/20 04:13:54;;;;;;;20.35;9.85;;;230.50;2252.80;;;;;;5076311;28;20028;-81
2022/02/20 04:16:20;;;;;;;23.80;10.98;;;230.50;2252.80;;;;;;5076401;28;20115;-82
2022/02/20 04:18:46;;;;;;;15.82;8.80;;;230.50;2252.80;;;;;;5094663;28;20174;-80
2022/02/20 04:21:12;;;;;;;20.50;8.93;;;230.60;2252.80;;;;;;5076361;28;20111;-84
2022/02/20 04:23:37;;;;;;;62.30;20.05;;;230.60;2252.80;;;;;;5076368;28;20042;-81
2022/02/20 04:26:04;;;;;;;40.47;13.27;;;230.60;2252.80;;;;;;5076134;28;20027;-83
2022/02/20 04:28:32;;;;;;;37.92;23.10;;;230.60;2252.80;;;;;;5076401;28;20016;-82
2022/02/20 04:30:58;;;;;;;36.80;17.60;;;230.50;2252.80;;;;;;5076167;28;20031;-82
2022/02/20 04:33:24;;;;;;;34.00;15.43;;;205.60;2252.80;;;;;;5076118;28;20031;-84
2022/02/20 04:35:50;;;;;;;42.13;21.52;;;205.50;2252.80;;;;;;5076192;28;20020;-82
2022/02/20 04:38:16;;;;;;;47.00;25.17;;;230.40;2252.80;;;;;;5076303;28;20048;-81
2022/02/20 04:40:42;;;;;;;46.40;23.48;;;230.40;2252.80;;;;;;5094063;28;20076;-82
2022/02/20 04:43:08;;;;;;;43.63;22.13;;;230.40;2252.80;;;;;;5076191;28;20020;-83
2022/02/20 04:45:33;;;;;;;42.50;21.63;;;230.40;2252.80;;;;;;5076282;28;20024;-84
2022/02/20 04:47:59;;;;;;;36.65;19.17;;;230.40;2252.80;;;;;;5075817;28;20027;-81
2022/02/20 04:50:25;;;;;;;33.08;18.95;;;230.40;2252.80;;;;;;5094142;28;20397;-82
2022/02/20 04:52:51;;;;;;;60.83;29.02;;;230.40;2252.80;;;;;;5076089;28;20020;-83
2022/02/20 04:55:17;;;;;;;58.95;26.30;;;230.40;2252.80;;;;;;5075704;28;20055;-82
2022/02/20 04:57:43;;;;;;;61.10;27.80;;;205.50;2252.80;;;;;;5094050;28;20024;-81
2022/02/20 05:00:11;;;;;;;45.38;20.77;;;205.50;2252.80;;;;;;5075880;28;20074;-82
2022/02/20 05:02:37;;;;;;;43.17;19.08;;;205.50;2252.80;;;;;;5075644;28;20028;-81
2022/02/20 05:05:03;;;;;;;42.60;22.30;;;205.50;2252.80;;;;;;5075800;28;20371;-83
2022/02/20 05:07:29;;;;;;;51.85;25.98;;;205.50;2252.80;;;;;;5075871;28;20377;-82
2022/02/20 05:09:55;;;;;;;45.90;24.27;;;205.60;2252.80;;;;;;5075675;28;20031;-82
2022/02/20 05:12:21;;;;;;;36.40;19.23;;;205.60;2252.80;;;;;;5078633;28;20031;-83
2022/02/20 05:14:47;;;;;;;37.72;19.58;;;205.60;2252.80;;;;;;5079745;28;20032;-83
2022/02/20 05:17:14;;;;;;;44.47;23.38;;;205.60;2252.80;;;;;;5079830;28;20110;-82
2022/02/20 05:19:39;;;;;;;42.17;20.55;;;205.60;2252.80;;;;;;5098064;28;20012;-82
2022/02/20 05:22:05;;;;;;;22.58;14.90;;;205.60;2252.80;;;;;;5079560;28;20031;-82
2022/02/20 05:24:31;;;;;;;23.60;14.73;;;205.60;2252.80;;;;;;5079584;28;20146;-83
2022/02/20 05:26:57;;;;;;;22.00;12.60;;;205.60;2252.80;;;;;;5079903;28;20491;-81
2022/02/20 05:29:23;;;;;;;21.60;12.95;;;205.50;2252.80;;;;;;5079519;28;20020;-83
2022/02/20 05:31:48;;;;;;;21.45;12.93;;;205.50;2252.80;;;;;;5079275;28;20024;-82
2022/02/20 05:34:14;;;;;;;29.85;15.15;;;205.40;2252.80;;;;;;5079608;28;20051;-82
2022/02/20 05:36:40;;;;;;;23.48;13.27;;;205.50;2252.80;;;;;;5079024;28;20078;-82
2022/02/20 05:39:06;;;;;;;19.58;12.32;;;205.40;2252.80;;;;;;5079581;28;20016;-81
2022/02/20 05:41:32;;;;;;;19.45;13.32;;;205.40;2252.80;;;;;;5079399;28;20027;-82
2022/02/20 05:43:58;;;;;;;18.50;12.10;;;205.40;2252.80;;;;;;5097261;28;20043;-82
2022/02/20 05:46:23;;;;;;;21.98;15.00;;;205.40;2252.80;;;;;;5079563;28;20070;-84
2022/02/20 05:48:49;;;;;;;21.67;14.43;;;205.40;2252.80;;;;;;5079286;28;20023;-83
2022/02/20 05:51:15;;;;;;;26.90;14.93;;;205.40;2252.80;;;;;;5078931;28;20020;-83
2022/02/20 05:53:41;;;;;;;25.05;15.13;;;205.40;2252.80;;;;;;5097725;28;20016;-83
2022/02/20 05:56:07;;;;;;;24.67;15.70;;;205.40;2252.80;;;;;;5079577;28;20031;-82
2022/02/20 05:58:33;;;;;;;25.40;13.82;;;205.50;2252.80;;;;;;5083835;28;20091;-82
2022/02/20 06:00:59;;;;;;;22.48;14.02;;;205.40;2252.80;;;;;;5083441;28;20099;-82
2022/02/20 06:03:26;;;;;;;23.35;12.45;;;205.40;2252.80;;;;;;5082336;28;20459;-83
2022/02/20 06:05:52;;;;;;;22.13;13.95;;;205.50;2252.80;;;;;;5097015;28;20027;-83
2022/02/20 06:08:18;;;;;;;31.73;15.50;;;205.40;2252.80;;;;;;5078922;28;20028;-81
2022/02/20 06:10:44;;;;;;;22.90;14.48;;;205.40;2252.80;;;;;;5078727;28;20024;-82
2022/02/20 06:13:09;;;;;;;27.25;14.80;;;205.50;2252.80;;;;;;5078872;28;20026;-82
2022/02/20 06:15:36;;;;;;;28.60;15.75;;;205.50;2252.80;;;;;;5096986;28;20017;-83
2022/02/20 06:18:02;;;;;;;34.85;17.23;;;205.50;2252.80;;;;;;5078668;28;20054;-81
2022/02/20 06:20:28;;;;;;;33.92;18.30;;;205.50;2252.80;;;;;;5078321;28;20024;-82
2022/02/20 06:22:56;;;;;;;19.88;11.90;;;205.50;2252.80;;;;;;5077659;28;20031;-83
2022/02/20 06:25:23;;;;;;;20.90;12.55;;;205.50;2252.80;;;;;;5078304;28;20532;-84
2022/02/20 06:27:49;;;;;;;38.90;18.05;;;205.50;2252.80;;;;;;5096716;28;20076;-82
2022/02/20 06:30:16;;;;;;;37.88;16.27;;;205.50;2252.80;;;;;;5078621;28;20024;-82
2022/02/20 06:32:41;;;;;;;29.58;13.93;;;205.50;2252.80;;;;;;5078196;28;20509;-83
2022/02/20 06:35:07;;;;;;;29.90;14.93;;;205.50;2252.80;;;;;;5078550;28;20024;-83
2022/02/20 06:37:33;;;;;;;30.75;15.88;;;205.50;2252.80;;;;;;5078169;28;20418;-84
2022/02/20 06:39:59;;;;;;;29.73;17.02;;;205.60;2252.80;;;;;;5078345;28;20074;-82
2022/02/20 06:42:25;;;;;;;61.88;30.75;;;205.60;2252.80;;;;;;5078527;28;20495;-84
2022/02/20 06:44:51;;;;;;;81.43;42.00;;;205.60;2252.80;;;;;;5078275;28;20024;-83
2022/02/20 06:47:16;;;;;;;41.05;22.85;;;205.60;2252.80;;;;;;5078291;28;20055;-82
2022/02/20 06:49:42;;;;;;;91.65;39.70;;;205.60;2252.80;;;;;;5078261;28;20359;-83
2022/02/20 06:52:16;;;;;;;74.82;34.00;;;205.70;2252.80;;;;;;5077860;28;20023;-83
2022/02/20 06:54:42;;;;;;;85.00;40.72;;;205.60;2252.80;;;;;;5077948;28;20081;-83
2022/02/20 06:57:08;;;;;;;115.20;57.42;;;205.70;2252.80;;;;;;5078174;28;20016;-82
2022/02/20 06:59:34;;;;;;;79.90;42.28;;;205.70;2252.80;;;;;;5078005;28;20119;-83
2022/02/20 07:02:00;;;;;;;61.38;36.38;;;205.70;2252.80;;;;;;5096295;28;20136;-85
2022/02/20 07:04:25;;;;;;;62.47;36.22;;;205.70;2252.80;;;;;;5077778;28;20493;-81
2022/02/20 07:07:00;;;;;;;62.95;37.70;;;205.70;2252.80;;;;;;5077624;28;20028;-82
2022/02/20 07:09:26;;;;;;;61.97;37.10;;;205.70;2252.80;;;;;;5077236;28;20028;-83
2022/02/20 07:12:00;;;;;;;69.70;38.20;;;230.40;2252.80;;;;;;5077558;28;20119;-82
2022/02/20 07:14:26;;;;;;;62.15;35.65;;;230.40;2252.80;;;;;;5077318;28;20028;-83
2022/02/20 07:16:52;;;;;;;58.72;32.35;;;230.40;2252.80;;;;;;5077524;28;20107;-80
2022/02/20 07:19:18;;;;;;;57.20;32.35;;;230.40;2252.80;;;;;;5077537;28;20513;-83
2022/02/20 07:21:44;;;;;;;59.05;29.95;;;230.40;2252.80;;;;;;5077117;28;20038;-80
2022/02/20 07:24:09;;;;;;;61.10;30.67;;;230.40;2252.80;;;;;;5077325;28;20024;-85
2022/02/20 07:26:35;;;;;;;43.45;26.27;;;230.40;2252.80;;;;;;5077580;28;20059;-81
2022/02/20 07:29:01;;;;;;;47.10;27.77;;;230.50;2252.80;;;;;;5077483;28;20035;-81
2022/02/20 07:31:28;;;;;;;53.95;28.08;;;230.50;2252.80;;;;;;5077620;28;20061;-81
2022/02/20 07:33:54;;;;;;;63.50;28.52;;;230.60;2252.80;;;;;;5077231;28;20024;-81
2022/02/20 07:36:23;;;;;;;45.03;24.00;;;230.50;2252.80;;;;;;5076967;28;20031;-81
2022/02/20 07:38:49;;;;;;;29.58;19.13;;;230.60;2252.80;;;;;;5077330;28;20066;-82
2022/02/20 07:41:15;;;;;;;31.38;18.33;;;230.60;2252.80;;;;;;5077215;28;20026;-82
2022/02/20 07:43:44;;;;;;;30.80;17.60;;;230.70;2252.80;;;;;;5076875;28;20101;-81
2022/02/20 07:46:10;;;;;;;35.28;21.08;;;230.70;2252.80;;;;;;5077057;28;20508;-80
2022/02/20 07:48:35;;;;;;;37.13;24.13;;;230.60;2252.80;;;;;;5076795;28;20120;-80
2022/02/20 07:51:01;;;;;;;41.15;25.20;;;230.60;2252.80;;;;;;5094834;28;20095;-80
2022/02/20 07:53:27;;;;;;;33.55;20.95;;;230.60;2252.80;;;;;;5076832;28;20039;-81
2022/02/20 07:55:53;;;;;;;33.90;19.67;;;230.50;2252.80;;;;;;5076778;28;20459;-82
2022/02/20 07:58:20;;;;;;;35.22;22.38;;;230.70;2252.80;;;;;;5076775;28;20069;-81
2022/02/20 08:00:45;;;;;;;24.58;15.73;;;230.70;2252.80;;;;;;5076776;28;20341;-80
2022/02/20 08:03:11;;;;;;;26.17;13.98;;;230.70;2252.80;;;;;;5076428;28;20031;-80
2022/02/20 08:05:37;;;;;;;40.92;24.17;;;230.70;2252.80;;;;;;5076901;28;20028;-82
2022/02/20 08:08:03;;;;;;;30.02;17.13;;;230.60;2252.80;;;;;;5076751;28;20019;-81
2022/02/20 08:10:29;;;;;;;47.72;29.08;;;230.60;2252.80;;;;;;5076522;28;20474;-81
2022/02/20 08:12:56;;;;;;;27.45;18.33;;;230.60;2252.80;;;;;;5076580;28;20020;-82
2022/02/20 08:15:22;;;;;;;28.50;16.10;;;230.40;2252.80;;;;;;5094679;28;20081;-82
2022/02/20 08:17:49;;;;;;;30.33;19.58;;;230.60;2252.80;;;;;;5076368;28;20024;-81
2022/02/20 08:20:17;;;;;;;47.65;25.15;;;205.70;2252.80;;;;;;5076394;28;20478;-81
2022/02/20 08:22:43;;;;;;;74.13;38.80;;;230.40;2252.80;;;;;;5076467;28;20021;-82
2022/02/20 08:25:10;;;;;;;34.92;22.83;;;230.40;2252.80;;;;;;5076003;28;20074;-81
2022/02/20 08:27:37;;;;;;;35.03;17.42;;;230.40;2252.80;;;;;;5076439;28;20533;-80
2022/02/20 08:30:05;;;;;;;44.08;29.52;;;205.60;2252.80;;;;;;5076224;28;20027;-80
2022/02/20 08:32:31;;;;;;;56.40;41.70;;;230.50;2252.80;;;;;;5075953;28;20076;-81
2022/02/20 08:35:11;;;;;;;63.53;44.03;;;230.50;2252.80;;;;;;5076106;28;20471;-80
2022/02/20 08:37:43;;;;;;;30.15;15.05;;;230.60;2252.80;;;;;;5059037;28;20093;-81
2022/02/20 08:40:10;;;;;;;53.03;35.83;;;230.70;2252.80;;;;;;5075952;28;20052;-83
2022/02/20 08:42:36;;;;;;;37.42;23.83;;;230.60;2252.80;;;;;;5075960;28;20030;-80
2022/02/20 08:45:03;;;;;;;30.15;15.27;;;230.80;2252.80;;;;;;5075809;28;20028;-81
2022/02/20 08:47:29;;;;;;;21.05;14.48;;;230.90;2252.80;;;;;;5106685;28;20008;-81
2022/02/20 08:49:55;;;;;;;20.30;13.38;;;230.90;2252.80;;;;;;5089043;28;20089;-80
2022/02/20 08:52:22;;;;;;;23.77;14.48;;;231.00;2252.80;;;;;;5076669;28;20462;-80
2022/02/20 08:54:49;;;;;;;31.42;21.73;;;231.10;2252.80;;;;;;5075954;28;20027;-81
2022/02/20 08:57:16;;;;;;;19.25;13.18;;;231.10;2252.80;;;;;;5075964;28;20027;-82
2022/02/20 08:59:42;;;;;;;28.00;16.50;;;231.10;2252.80;;;;;;5075340;28;20020;-79
2022/02/20 09:02:09;;;;;;;37.33;23.70;;;231.10;2252.80;;;;;;5075316;28;20490;-79
2022/02/20 09:04:39;;;;;;;36.90;26.08;;;231.20;2252.80;;;;;;5093428;28;20016;-81
2022/02/20 09:07:20;;;;;;;19.15;14.43;;;231.30;2252.80;;;;;;5111589;28;20095;-81
2022/02/20 09:09:47;;;;;;;19.55;8.43;;;231.10;2252.80;;;;;;5095682;28;20047;-77
2022/02/20 09:12:12;;;;;;;16.42;9.13;;;256.20;2252.80;;;;;;5095365;28;20020;-78
2022/02/20 09:14:38;;;;;;;13.32;9.70;;;231.20;2252.80;;;;;;5113486;28;20068;-77
2022/02/20 09:17:04;;;;;;;21.08;10.35;;;231.20;2252.80;;;;;;5094150;28;20012;-79
2022/02/20 09:19:30;;;;;;;25.20;16.25;;;231.30;2252.80;;;;;;5095404;28;20023;-79
2022/02/20 09:21:56;;;;;;;25.35;17.17;;;256.00;2252.80;;;;;;5095210;28;20523;-78
2022/02/20 09:24:22;;;;;;;22.38;15.18;;;256.10;2252.80;;;;;;5095698;28;20028;-81
2022/02/20 09:26:50;;;;;;;29.60;15.25;;;256.10;2252.80;;;;;;5095210;28;20525;-80
2022/02/20 09:29:26;;;;;;;21.92;13.55;;;256.30;2252.80;;;;;;5095492;28;20020;-79
2022/02/20 09:31:52;;;;;;;25.00;14.73;;;256.40;2252.80;;;;;;5095633;28;20379;-78
2022/02/20 09:34:18;;;;;;;20.88;13.05;;;256.40;2252.80;;;;;;5113493;28;20023;-80
2022/02/20 09:36:44;;;;;;;19.30;10.75;;;256.50;2252.80;;;;;;5113258;28;20489;-79
2022/02/20 09:39:10;;;;;;;21.50;13.30;;;256.50;2252.80;;;;;;5095367;28;20110;-81
2022/02/20 09:41:36;;;;;;;28.98;19.80;;;256.40;2252.80;;;;;;5113181;28;20039;-80
2022/02/20 09:44:03;;;;;;;32.38;22.40;;;256.30;2252.80;;;;;;5095248;28;20161;-80
2022/02/20 09:46:35;;;;;;;33.33;23.38;;;256.00;2252.80;;;;;;5095503;28;20072;-79
2022/02/20 09:49:10;;;;;;;39.07;24.57;;;256.50;2252.80;;;;;;5095098;28;20023;-80
2022/02/20 09:52:04;;;;;;;45.92;30.17;;;256.60;2252.80;;;;;;5113352;28;20027;-80
2022/02/20 09:54:36;;;;;;;27.83;20.17;;;256.80;2252.80;;;;;;5095573;28;20292;-80
2022/02/20 09:57:11;;;;;;;26.65;19.00;;;256.90;2252.80;;;;;;5095617;28;20020;-78
2022/02/20 09:59:43;;;;;;;37.70;27.35;;;281.60;2278.40;;;;;;5098761;28;20030;-79
2022/02/20 10:02:16;;;;;;;30.50;22.03;;;281.70;2278.40;;;;;;5098801;28;20016;-76
2022/02/20 10:04:48;;;;;;;38.95;26.50;;;281.70;2278.40;;;;;;5099123;28;20032;-78
2022/02/20 10:07:33;;;;;;;34.30;22.02;;;281.90;2278.40;;;;;;5099047;28;20023;-77
2022/02/20 10:10:21;;;;;;;23.35;16.77;;;282.10;2278.40;;;;;;5117176;28;20023;-79
2022/02/20 10:13:05;;;;;;;24.17;16.63;;;282.20;2278.40;;;;;;5117232;28;20043;-82
2022/02/20 10:15:35;;;;;;;28.67;19.90;;;282.20;2278.40;;;;;;5099098;28;20062;-79
2022/02/20 10:18:13;;;;;;;29.25;17.45;;;282.20;2278.40;;;;;;5098854;28;20020;-79
2022/02/20 10:20:39;;;;;;;44.65;28.48;;;282.50;2278.40;;;;;;5116899;28;20069;-80
2022/02/20 10:23:07;;;;;;;31.73;17.20;;;282.40;2278.40;;;;;;5098498;28;20516;-80
2022/02/20 10:25:33;;;;;;;67.65;30.73;;;282.40;2278.40;;;;;;5098243;28;20039;-78
2022/02/20 10:27:59;;;;;;;159.18;74.78;;;282.40;2278.40;;;;;;5116568;28;20089;-79
2022/02/20 10:30:34;;;;;;;112.57;56.08;;;282.40;2278.40;;;;;;5098566;28;20443;-80
2022/02/20 10:33:05;;;;;;;40.30;22.88;;;282.40;2278.40;;;;;;5098393;28;20069;-81
2022/02/20 10:35:33;;;;;;;29.63;19.77;;;282.40;2278.40;;;;;;5116389;28;20088;-79
2022/02/20 10:38:05;;;;;;;27.75;17.77;;;282.30;2278.40;;;;;;5097900;28;20042;-80
2022/02/20 10:40:31;;;;;;;19.13;12.05;;;282.30;2278.40;;;;;;5115351;28;20023;-78
2022/02/20 10:42:59;;;;;;;23.38;15.02;;;282.20;2278.40;;;;;;5096914;28;20455;-78
2022/02/20 10:45:34;;;;;;;38.78;20.40;;;282.20;2278.40;;;;;;5097912;28;20459;-79
2022/02/20 10:48:03;;;;;;;30.98;16.35;;;282.10;2278.40;;;;;;5097775;28;20068;-78
2022/02/20 10:50:31;;;;;;;32.58;18.67;;;282.20;2252.80;;;;;;5097484;28;20019;-78
2022/02/20 10:53:07;;;;;;;32.45;20.42;;;282.20;2252.80;;;;;;5097696;28;20020;-77
2022/02/20 10:55:47;;;;;;;25.48;14.20;;;282.40;2278.40;;;;;;5116403;28;20027;-79
2022/02/20 10:58:41;;;;;;;28.60;12.35;;;282.50;2252.80;;;;;;5097837;28;20114;-77
2022/02/20 11:01:18;;;;;;;22.02;11.70;;;282.30;2227.20;;;;;;5093960;28;20037;-79
2022/02/20 11:03:43;;;;;;;18.50;13.27;;;282.10;2227.20;;;;;;5116320;28;20023;-80
2022/02/20 11:06:09;;;;;;;25.75;18.77;;;282.20;2252.80;;;;;;5097716;28;20114;-78
2022/02/20 11:08:35;;;;;;;17.67;12.18;;;282.20;2252.80;;;;;;5097739;28;20015;-78
2022/02/20 11:11:36;;;;;;;18.80;11.30;;;282.20;2252.80;;;;;;5097644;28;20520;-80
2022/02/20 11:13:51;;;;;;;21.73;13.90;;;282.20;2252.80;;;;;;5115435;28;20077;-79
2022/02/20 11:16:18;;;;;;;39.60;19.13;;;282.10;2252.80;;;;;;5097885;28;20015;-80
2022/02/20 11:18:45;;;;;;;21.75;13.93;;;282.20;2252.80;;;;;;5115940;28;20347;-81
2022/02/20 11:21:14;;;;;;;27.60;16.05;;;281.80;2252.80;;;;;;5097966;28;20024;-79
2022/02/20 11:23:42;;;;;;;21.85;17.05;;;282.00;2278.40;;;;;;5097666;28;20104;-79
2022/02/20 11:26:09;;;;;;;20.92;12.60;;;282.10;2278.40;;;;;;5097469;28;20020;-79
2022/02/20 11:28:38;;;;;;;19.98;12.68;;;282.00;2278.40;;;;;;5097942;28;20463;-78
2022/02/20 11:31:05;;;;;;;23.40;17.92;;;281.90;2278.40;;;;;;5105242;28;20008;-78
2022/02/20 11:33:33;;;;;;;24.98;17.20;;;281.80;2278.40;;;;;;5135643;28;20031;-79
2022/02/20 11:36:00;;;;;;;14.50;10.00;;;281.90;2278.40;;;;;;5097744;28;20405;-79
2022/02/20 11:38:26;;;;;;;32.60;17.48;;;282.40;2278.40;;;;;;5097147;28;20048;-80
2022/02/20 11:40:57;;;;;;;29.98;17.00;;;281.90;2278.40;;;;;;5096999;28;20089;-80
2022/02/20 11:43:44;;;;;;;23.52;13.02;;;282.10;2278.40;;;;;;5115534;28;20440;-79
2022/02/20 11:46:24;;;;;;;18.17;10.98;;;282.30;2278.40;;;;;;5097199;28;20064;-77
2022/02/20 11:49:02;;;;;;;31.65;18.88;;;282.50;2278.40;;;;;;5096903;28;20367;-79
2022/02/20 11:51:29;;;;;;;30.08;19.15;;;307.30;2278.40;;;;;;5115365;28;20055;-77
2022/02/20 11:54:19;;;;;;;31.17;16.52;;;307.80;2252.80;;;;;;5096781;28;20365;-77
2022/02/20 11:57:18;;;;;;;21.13;12.63;;;308.00;2201.60;;;;;;5115345;28;20050;-79
2022/02/20 12:00:03;;;;;;;18.83;13.48;;;307.90;2176.00;;;;;;5097121;28;20455;-77
2022/02/20 12:02:30;;;;;;;21.35;14.38;;;307.90;2201.60;;;;;;5094256;28;20076;-79
2022/02/20 12:04:55;;;;;;;22.92;13.10;;;307.80;2176.00;;;;;;5096355;28;20024;-79
2022/02/20 12:07:39;;;;;;;22.08;14.23;;;307.50;2176.00;;;;;;5096782;28;20042;-82
2022/02/20 12:10:28;;;;;;;30.17;17.40;;;307.60;2227.20;;;;;;5096582;28;20028;-79
2022/02/20 12:13:15;;;;;;;27.45;21.20;;;307.50;2201.60;;;;;;5096647;28;20050;-79
2022/02/20 12:15:43;;;;;;;111.60;73.45;;;307.20;2227.20;;;;;;5078561;28;20034;-80
2022/02/20 12:18:12;;;;;;;56.75;35.90;;;307.30;2227.20;;;;;;5096633;28;20398;-79
2022/02/20 12:20:56;;;;;;;45.83;29.77;;;307.30;2227.20;;;;;;5081178;28;20020;-78
2022/02/20 12:23:29;;;;;;;24.40;17.17;;;307.80;2252.80;;;;;;5076015;28;20171;-78
2022/02/20 12:25:59;;;;;;;32.67;21.73;;;308.00;2201.60;;;;;;5076413;28;20020;-78
2022/02/20 12:28:35;;;;;;;32.15;23.83;;;308.00;2201.60;;;;;;5076210;28;20020;-81
2022/02/20 12:31:28;;;;;;;35.10;20.08;;;307.90;2150.40;;;;;;5076306;28;20106;-81
2022/02/20 12:33:54;;;;;;;41.72;27.08;;;307.90;2176.00;;;;;;5076247;28;20028;-81
2022/02/20 12:36:28;;;;;;;44.15;24.48;;;332.90;2227.20;;;;;;5076026;28;20020;-82
2022/02/20 12:38:55;;;;;;;30.13;19.65;;;333.30;2227.20;;;;;;5076265;28;20080;-81
2022/02/20 12:41:22;;;;;;;20.55;14.18;;;333.60;2201.60;;;;;;5075357;28;20051;-80
2022/02/20 12:43:53;;;;;;;24.52;15.18;;;358.40;2150.40;;;;;;5075740;28;20497;-80
2022/02/20 12:46:19;;;;;;;31.85;19.27;;;333.70;2124.80;;;;;;5075737;28;20031;-80
2022/02/20 12:48:45;;;;;;;20.95;12.52;;;358.60;2099.20;;;;;;5076001;28;20451;-81
2022/02/20 12:51:11;;;;;;;19.35;11.68;;;359.10;2048.00;;;;;;5075553;28;20020;-82
2022/02/20 12:53:37;;;;;;;18.20;11.82;;;358.50;2048.00;;;;;;5075687;28;20011;-80
2022/02/20 12:56:05;;;;;;;17.52;11.70;;;333.10;2073.60;;;;;;5093679;28;20016;-78
2022/02/20 12:58:31;;;;;;;36.63;29.55;;;332.90;2124.80;;;;;;5074382;28;20027;-80